CHM2 weather

Spiritwood / H & M Fast Farms
Saskatchewan, Canada

Public forecast

Using degrees Celsius for public forecast. Weather courtesy of forecast.io.

METAR (pilot weather report)

Closest report is North Battleford Airport, 38.9 nm (72.1 km) SW. Retrieved 2019/04/18 22:00 UTC (21 minutes ago):

CYQW 182200Z AUTO 27008G15KT 190V300 9SM CLR 16/M06 A2995 RMK SLP158 DENSITY ALT 2300FT

TAF (pilot weather forecast)

Closest forecast is North Battleford Airport, 38.9 nm (72.1 km) SW. Retrieved 2019/04/18 18:39 UTC (4 hours ago):

TAF CYQW 181738Z 1818/1906 26008KT P6SM SCT220 BECMG 1819/1821 30012KT FM190100 29008KT P6SM SCT150 BKN220 BECMG 1901/1903 14006KT RMK FCST BASED ON AUTO OBS. NXT FCST BY 190000Z